Royal Clipper — 9HA2796 — position and weather

sailwx.info

Track history (hours):
 
Tides and Currents Weather Stations Pressure Air Temp Water Temp Dewpoint Dewpoint Depression Visibility Wind Speed Wind Dir Waves Ship Positions

Royal Clipper

Last reported at 2018-Aug-09 21:04 UTC. Time now 2018-Aug-14 07:05 UTC.
Position N 44°22' E 014°20'.

Length 137 m; draft 6.2 m.

Type: Ship. MMSI: 215813000.

Date/timePositionNaut miles runAvg speedWind from/ knotsBaromVisibWave heightAir tempDewpointWater temp
2018-Aug-09 21:04N 44°22' E 014°20'112.0
2018-Aug-09 21:00N 44°23' E 014°19'612.0
2018-Aug-09 20:30N 44°27' E 014°13'811.8
2018-Aug-09 19:49N 44°33' E 014°05'411.4
2018-Aug-09 19:29N 44°35' E 014°01'611.5
2018-Aug-09 19:00N 44°39' E 013°56'1411.8
2018-Aug-09 17:50N 44°50' E 013°44'411.5
2018-Aug-09 17:30N 44°53' E 013°41'611.2
2018-Aug-09 17:00N 44°59' E 013°38'510.6
2018-Aug-09 16:30N 45°04' E 013°37'2 1.5
2018-Aug-09 15:29N 45°05' E 013°38'0 0.0
2018-Aug-09 13:38N 45°05' E 013°38'0 0.0
2018-Aug-09 13:26N 45°05' E 013°38'0 0.0
2018-Aug-09 12:56N 45°05' E 013°38'0 0.0
2018-Aug-09 12:26N 45°05' E 013°38'0 0.0
2018-Aug-09 11:56N 45°05' E 013°38'0 0.0
2018-Aug-09 11:14N 45°05' E 013°38'0 0.0
2018-Aug-09 10:59N 45°05' E 013°38'0 0.0
2018-Aug-09 10:29N 45°05' E 013°38'0 0.0
2018-Aug-09 09:59N 45°05' E 013°38'0 0.0
2018-Aug-09 09:30N 45°05' E 013°38'4 7.8
2018-Aug-09 09:00N 45°05' E 013°32'4 9.1
2018-Aug-09 08:30N 45°05' E 013°26'510.5
2018-Aug-09 08:00N 45°04' E 013°18'510.4
2018-Aug-09 07:30N 45°04' E 013°11'510.6
2018-Aug-09 07:00N 45°06' E 013°03'510.5
2018-Aug-09 06:30N 45°07' E 012°57'510.5
2018-Aug-09 06:00N 45°10' E 012°50'710.1
2018-Aug-09 05:22N 45°13' E 012°42'410.0
2018-Aug-09 05:00N 45°15' E 012°38'2 3.1
2018-Aug-09 04:30N 45°16' E 012°36'0 0.5
2018-Aug-09 04:00N 45°16' E 012°37'0 0.4
2018-Aug-09 03:31N 45°16' E 012°37'0 0.5
2018-Aug-09 03:00N 45°16' E 012°37'0 0.4
2018-Aug-09 02:31N 45°16' E 012°38'0 0.4
2018-Aug-09 02:01N 45°16' E 012°38'0 0.3
2018-Aug-09 01:30N 45°16' E 012°38'0 0.4
2018-Aug-09 01:00N 45°16' E 012°38'0 0.5
2018-Aug-09 00:30N 45°17' E 012°38'0 0.6
2018-Aug-09 00:00N 45°17' E 012°38'0 0.6
2018-Aug-08 23:30N 45°17' E 012°38'0 0.8
2018-Aug-08 23:00N 45°18' E 012°38'0 0.6
2018-Aug-08 22:30N 45°18' E 012°39'0 0.3
2018-Aug-08 22:00N 45°18' E 012°39'0 0.4
2018-Aug-08 21:30N 45°18' E 012°39'0 0.2
2018-Aug-08 21:00N 45°18' E 012°39'0 0.2
2018-Aug-08 20:30N 45°18' E 012°39'2 3.0
2018-Aug-08 20:00N 45°19' E 012°37'3 5.1
2018-Aug-08 19:30N 45°21' E 012°34'4 7.3
2018-Aug-08 19:00N 45°23' E 012°30'5 9.3
2018-Aug-08 18:30N 45°26' E 012°25'3 5.3
2018-Aug-08 18:00N 45°26' E 012°21'2 2.8
2018-Aug-08 17:28N 45°26' E 012°19'0 0.0
2018-Aug-08 16:58N 45°26' E 012°19'0 0.0
2018-Aug-08 16:25N 45°26' E 012°19'0 0.0
2018-Aug-08 15:58N 45°26' E 012°19'0 0.0
2018-Aug-08 15:28N 45°26' E 012°19'0 0.0
2018-Aug-08 14:58N 45°26' E 012°19'0 0.0
2018-Aug-08 14:28N 45°26' E 012°19'0 0.0
2018-Aug-08 13:58N 45°26' E 012°19'0 0.0
2018-Aug-08 13:28N 45°26' E 012°19'0 0.0
2018-Aug-08 12:58N 45°26' E 012°19'0 0.0
2018-Aug-08 12:28N 45°26' E 012°19'0 0.0
2018-Aug-08 11:58N 45°26' E 012°19'0 0.0
2018-Aug-08 11:28N 45°26' E 012°19'0 0.0
2018-Aug-08 10:58N 45°26' E 012°19'0 0.0
2018-Aug-08 10:28N 45°26' E 012°19'0 0.0
2018-Aug-08 09:58N 45°26' E 012°19'0 0.0
2018-Aug-08 09:28N 45°26' E 012°19'0 0.0
2018-Aug-08 08:58N 45°26' E 012°19'0 0.0
2018-Aug-08 08:28N 45°26' E 012°19'0 0.0
2018-Aug-08 07:58N 45°26' E 012°19'0 0.0
2018-Aug-08 07:28N 45°26' E 012°19'0 0.0
2018-Aug-08 06:58N 45°26' E 012°19'0 0.0
2018-Aug-08 06:30N 45°26' E 012°19'1 1.1
2018-Aug-08 05:58N 45°26' E 012°20'2 4.6
2018-Aug-08 05:31N 45°26' E 012°23'4 7.4
2018-Aug-08 05:00N 45°25' E 012°28'510.1
2018-Aug-08 04:30N 45°22' E 012°34'5 9.1
2018-Aug-08 04:00N 45°23' E 012°40'5 9.1
2018-Aug-08 03:30N 45°25' E 012°47'8 9.1
2018-Aug-08 02:37N 45°28' E 012°57'1 9.2
2018-Aug-08 02:27N 45°29' E 012°59'4 9.2
2018-Aug-08 02:00N 45°30' E 013°05'4 8.3
2018-Aug-08 01:30N 45°32' E 013°10'1 1.9
2018-Aug-08 01:00N 45°32' E 013°11'1 1.4
2018-Aug-08 00:30N 45°32' E 013°12'0 0.8
2018-Aug-08 00:00N 45°33' E 013°13'0 0.7
2018-Aug-07 23:30N 45°33' E 013°13'0 0.6
2018-Aug-07 23:00N 45°33' E 013°14'1 1.7
2018-Aug-07 22:27N 45°33' E 013°15'2 4.4
2018-Aug-07 22:00N 45°33' E 013°18'2 3.4
2018-Aug-07 21:30N 45°34' E 013°20'2 3.7
2018-Aug-07 21:00N 45°35' E 013°22'2 4.7
2018-Aug-07 20:30N 45°35' E 013°26'2 4.8
2018-Aug-07 20:00N 45°36' E 013°29'2 4.4
2018-Aug-07 19:30N 45°37' E 013°32'1 2.2
2018-Aug-07 19:00N 45°37' E 013°33'2 4.1
2018-Aug-07 18:30N 45°35' E 013°33'0 0.9
2018-Aug-07 18:00N 45°34' E 013°34'1 1.5
2018-Aug-07 17:30N 45°33' E 013°34'1 2.0
2018-Aug-07 16:58N 45°32' E 013°34'1 1.9
2018-Aug-07 16:30N 45°31' E 013°33'0 0.5
2018-Aug-07 15:58N 45°31' E 013°33'0 0.0
2018-Aug-07 15:25N 45°31' E 013°33'0 0.0
2018-Aug-07 14:55N 45°31' E 013°33'0 0.0
2018-Aug-07 14:28N 45°31' E 013°33'0 0.0
2018-Aug-07 13:58N 45°31' E 013°33'0 0.0
2018-Aug-07 13:25N 45°31' E 013°33'0 0.0
2018-Aug-07 12:55N 45°31' E 013°33'0 0.0
2018-Aug-07 12:13N 45°31' E 013°33'0 0.0
2018-Aug-07 11:55N 45°31' E 013°33'0 0.0
2018-Aug-07 11:28N 45°31' E 013°33'0 0.0
2018-Aug-07 10:43N 45°31' E 013°33'0 0.0
2018-Aug-07 10:19N 45°31' E 013°33'0 0.0
2018-Aug-07 09:58N 45°31' E 013°33'0 0.0
2018-Aug-07 09:28N 45°31' E 013°33'0 0.0
2018-Aug-07 08:55N 45°31' E 013°33'0 0.0
2018-Aug-07 07:40N 45°31' E 013°33'0 0.1
2018-Aug-07 07:28N 45°31' E 013°33'1 1.3
2018-Aug-07 07:00N 45°31' E 013°33'4 7.8
2018-Aug-07 06:30N 45°30' E 013°27'510.8
2018-Aug-07 06:00N 45°27' E 013°21'510.4
2018-Aug-07 05:30N 45°25' E 013°15'2 3.9
2018-Aug-07 05:00N 45°24' E 013°12'1 1.7
2018-Aug-07 04:30N 45°24' E 013°11'0 0.8
2018-Aug-07 04:00N 45°25' E 013°11'0 0.7
2018-Aug-07 03:30N 45°25' E 013°11'0 0.6
2018-Aug-07 03:00N 45°25' E 013°10'0 0.7
2018-Aug-07 02:30N 45°25' E 013°10'0 0.7
2018-Aug-07 02:00N 45°25' E 013°09'0 0.7
2018-Aug-07 01:30N 45°25' E 013°09'0 0.7
2018-Aug-07 01:00N 45°24' E 013°09'0 0.6
2018-Aug-07 00:30N 45°24' E 013°08'1 1.0
2018-Aug-07 00:00N 45°24' E 013°08'1 2.8
2018-Aug-06 23:30N 45°23' E 013°07'4 7.2
2018-Aug-06 23:01N 45°19' E 013°09'4 7.1
2018-Aug-06 22:30N 45°16' E 013°11'4 7.3
2018-Aug-06 22:00N 45°13' E 013°14'1 2.8
2018-Aug-06 21:30N 45°12' E 013°15'0 0.3
2018-Aug-06 21:00N 45°11' E 013°15'0 0.6
2018-Aug-06 20:30N 45°11' E 013°15'1 2.6
2018-Aug-06 20:00N 45°10' E 013°16'611.1
2018-Aug-06 19:30N 45°08' E 013°23'611.0
2018-Aug-06 19:00N 45°06' E 013°30'3 5.3
2018-Aug-06 18:30N 45°05' E 013°34'1 2.9
2018-Aug-06 18:00N 45°05' E 013°36'1 2.1
2018-Aug-06 17:27N 45°05' E 013°38'0 0.8
2018-Aug-06 16:58N 45°05' E 013°38'0 0.0
2018-Aug-06 16:28N 45°05' E 013°38'0 0.0
2018-Aug-06 15:55N 45°05' E 013°38'0 0.0
2018-Aug-06 15:28N 45°05' E 013°38'0 0.0
2018-Aug-06 14:58N 45°05' E 013°38'0 0.0
2018-Aug-06 14:16N 45°05' E 013°38'0 0.0
2018-Aug-06 13:43N 45°05' E 013°38'0 0.0
2018-Aug-06 13:28N 45°05' E 013°38'0 0.0
2018-Aug-06 12:58N 45°05' E 013°38'0 0.0
2018-Aug-06 12:22N 45°05' E 013°38'0 0.0
2018-Aug-06 11:58N 45°05' E 013°38'0 0.0
2018-Aug-06 11:22N 45°05' E 013°38'0 0.0
2018-Aug-06 10:58N 45°05' E 013°38'0 0.0
2018-Aug-06 10:28N 45°05' E 013°38'0 0.0
2018-Aug-06 09:58N 45°05' E 013°38'2 4.0
2018-Aug-06 09:30N 45°04' E 013°36'510.4
2018-Aug-06 09:00N 44°59' E 013°37'4 8.6
2018-Aug-06 08:30N 44°55' E 013°39'2 3.7
2018-Aug-06 08:00N 44°54' E 013°40'2 3.8
2018-Aug-06 07:25N 44°52' E 013°43'2 4.1
2018-Aug-06 06:56N 44°51' E 013°45'5 9.2
2018-Aug-06 06:27N 44°47' E 013°47'510.0
2018-Aug-06 05:55N 44°42' E 013°48'6 8.7
2018-Aug-06 05:14N 44°37' E 013°54'2 8.9
2018-Aug-06 05:00N 44°36' E 013°56'5 9.5
2018-Aug-06 04:30N 44°33' E 014°01'4 8.5
2018-Aug-06 04:00N 44°30' E 014°05'4 8.4
2018-Aug-06 03:30N 44°27' E 014°10'  
2018-Jul-31 09:16N 38°04' E 015°31'4 8.5
2018-Jul-31 08:50N 38°08' E 015°33'412.5
2018-Jul-31 08:30N 38°12' E 015°35'712.7
2018-Jul-31 07:57N 38°18' E 015°40'4 9.8
2018-Jul-31 07:30N 38°21' E 015°36'610.3
2018-Jul-31 06:54N 38°26' E 015°31'410.3
2018-Jul-31 06:29N 38°29' E 015°28'  
Track history (hours):
 
Tides and Currents Weather Stations Pressure Air Temp Water Temp Dewpoint Dewpoint Depression Visibility Wind Speed Wind Dir Waves Ship Positions

Royal Clipper

Last reported at 2018-Aug-09 21:04 UTC. Time now 2018-Aug-14 07:05 UTC.
Position N 44°22' E 014°20'.

Length 137 m; draft 6.2 m.

Type: Ship. MMSI: 215813000.

Date/timePositionNaut miles runAvg speedWind from/ knotsBaromVisibWave heightAir tempDewpointWater temp
2018-Aug-09 21:04N 44°22' E 014°20'112.0
2018-Aug-09 21:00N 44°23' E 014°19'612.0
2018-Aug-09 20:30N 44°27' E 014°13'811.8
2018-Aug-09 19:49N 44°33' E 014°05'411.4
2018-Aug-09 19:29N 44°35' E 014°01'611.5
2018-Aug-09 19:00N 44°39' E 013°56'1411.8
2018-Aug-09 17:50N 44°50' E 013°44'411.5
2018-Aug-09 17:30N 44°53' E 013°41'611.2
2018-Aug-09 17:00N 44°59' E 013°38'510.6
2018-Aug-09 16:30N 45°04' E 013°37'2 1.5
2018-Aug-09 15:29N 45°05' E 013°38'0 0.0
2018-Aug-09 13:38N 45°05' E 013°38'0 0.0
2018-Aug-09 13:26N 45°05' E 013°38'0 0.0
2018-Aug-09 12:56N 45°05' E 013°38'0 0.0
2018-Aug-09 12:26N 45°05' E 013°38'0 0.0
2018-Aug-09 11:56N 45°05' E 013°38'0 0.0
2018-Aug-09 11:14N 45°05' E 013°38'0 0.0
2018-Aug-09 10:59N 45°05' E 013°38'0 0.0
2018-Aug-09 10:29N 45°05' E 013°38'0 0.0
2018-Aug-09 09:59N 45°05' E 013°38'0 0.0
2018-Aug-09 09:30N 45°05' E 013°38'4 7.8
2018-Aug-09 09:00N 45°05' E 013°32'4 9.1
2018-Aug-09 08:30N 45°05' E 013°26'510.5
2018-Aug-09 08:00N 45°04' E 013°18'510.4
2018-Aug-09 07:30N 45°04' E 013°11'510.6
2018-Aug-09 07:00N 45°06' E 013°03'510.5
2018-Aug-09 06:30N 45°07' E 012°57'510.5
2018-Aug-09 06:00N 45°10' E 012°50'710.1
2018-Aug-09 05:22N 45°13' E 012°42'410.0
2018-Aug-09 05:00N 45°15' E 012°38'2 3.1
2018-Aug-09 04:30N 45°16' E 012°36'0 0.5
2018-Aug-09 04:00N 45°16' E 012°37'0 0.4
2018-Aug-09 03:31N 45°16' E 012°37'0 0.5
2018-Aug-09 03:00N 45°16' E 012°37'0 0.4
2018-Aug-09 02:31N 45°16' E 012°38'0 0.4
2018-Aug-09 02:01N 45°16' E 012°38'0 0.3
2018-Aug-09 01:30N 45°16' E 012°38'0 0.4
2018-Aug-09 01:00N 45°16' E 012°38'0 0.5
2018-Aug-09 00:30N 45°17' E 012°38'0 0.6
2018-Aug-09 00:00N 45°17' E 012°38'0 0.6
2018-Aug-08 23:30N 45°17' E 012°38'0 0.8
2018-Aug-08 23:00N 45°18' E 012°38'0 0.6
2018-Aug-08 22:30N 45°18' E 012°39'0 0.3
2018-Aug-08 22:00N 45°18' E 012°39'0 0.4
2018-Aug-08 21:30N 45°18' E 012°39'0 0.2
2018-Aug-08 21:00N 45°18' E 012°39'0 0.2
2018-Aug-08 20:30N 45°18' E 012°39'2 3.0
2018-Aug-08 20:00N 45°19' E 012°37'3 5.1
2018-Aug-08 19:30N 45°21' E 012°34'4 7.3
2018-Aug-08 19:00N 45°23' E 012°30'5 9.3
2018-Aug-08 18:30N 45°26' E 012°25'3 5.3
2018-Aug-08 18:00N 45°26' E 012°21'2 2.8
2018-Aug-08 17:28N 45°26' E 012°19'0 0.0
2018-Aug-08 16:58N 45°26' E 012°19'0 0.0
2018-Aug-08 16:25N 45°26' E 012°19'0 0.0
2018-Aug-08 15:58N 45°26' E 012°19'0 0.0
2018-Aug-08 15:28N 45°26' E 012°19'0 0.0
2018-Aug-08 14:58N 45°26' E 012°19'0 0.0
2018-Aug-08 14:28N 45°26' E 012°19'0 0.0
2018-Aug-08 13:58N 45°26' E 012°19'0 0.0
2018-Aug-08 13:28N 45°26' E 012°19'0 0.0
2018-Aug-08 12:58N 45°26' E 012°19'0 0.0
2018-Aug-08 12:28N 45°26' E 012°19'0 0.0
2018-Aug-08 11:58N 45°26' E 012°19'0 0.0
2018-Aug-08 11:28N 45°26' E 012°19'0 0.0
2018-Aug-08 10:58N 45°26' E 012°19'0 0.0
2018-Aug-08 10:28N 45°26' E 012°19'0 0.0
2018-Aug-08 09:58N 45°26' E 012°19'0 0.0
2018-Aug-08 09:28N 45°26' E 012°19'0 0.0
2018-Aug-08 08:58N 45°26' E 012°19'0 0.0
2018-Aug-08 08:28N 45°26' E 012°19'0 0.0
2018-Aug-08 07:58N 45°26' E 012°19'0 0.0
2018-Aug-08 07:28N 45°26' E 012°19'0 0.0
2018-Aug-08 06:58N 45°26' E 012°19'0 0.0
2018-Aug-08 06:30N 45°26' E 012°19'1 1.1
2018-Aug-08 05:58N 45°26' E 012°20'2 4.6
2018-Aug-08 05:31N 45°26' E 012°23'4 7.4
2018-Aug-08 05:00N 45°25' E 012°28'510.1
2018-Aug-08 04:30N 45°22' E 012°34'5 9.1
2018-Aug-08 04:00N 45°23' E 012°40'5 9.1
2018-Aug-08 03:30N 45°25' E 012°47'8 9.1
2018-Aug-08 02:37N 45°28' E 012°57'1 9.2
2018-Aug-08 02:27N 45°29' E 012°59'4 9.2
2018-Aug-08 02:00N 45°30' E 013°05'4 8.3
2018-Aug-08 01:30N 45°32' E 013°10'1 1.9
2018-Aug-08 01:00N 45°32' E 013°11'1 1.4
2018-Aug-08 00:30N 45°32' E 013°12'0 0.8
2018-Aug-08 00:00N 45°33' E 013°13'0 0.7
2018-Aug-07 23:30N 45°33' E 013°13'0 0.6
2018-Aug-07 23:00N 45°33' E 013°14'1 1.7
2018-Aug-07 22:27N 45°33' E 013°15'2 4.4
2018-Aug-07 22:00N 45°33' E 013°18'2 3.4
2018-Aug-07 21:30N 45°34' E 013°20'2 3.7
2018-Aug-07 21:00N 45°35' E 013°22'2 4.7
2018-Aug-07 20:30N 45°35' E 013°26'2 4.8
2018-Aug-07 20:00N 45°36' E 013°29'2 4.4
2018-Aug-07 19:30N 45°37' E 013°32'1 2.2
2018-Aug-07 19:00N 45°37' E 013°33'2 4.1
2018-Aug-07 18:30N 45°35' E 013°33'0 0.9
2018-Aug-07 18:00N 45°34' E 013°34'1 1.5
2018-Aug-07 17:30N 45°33' E 013°34'1 2.0
2018-Aug-07 16:58N 45°32' E 013°34'1 1.9
2018-Aug-07 16:30N 45°31' E 013°33'0 0.5
2018-Aug-07 15:58N 45°31' E 013°33'0 0.0
2018-Aug-07 15:25N 45°31' E 013°33'0 0.0
2018-Aug-07 14:55N 45°31' E 013°33'0 0.0
2018-Aug-07 14:28N 45°31' E 013°33'0 0.0
2018-Aug-07 13:58N 45°31' E 013°33'0 0.0
2018-Aug-07 13:25N 45°31' E 013°33'0 0.0
2018-Aug-07 12:55N 45°31' E 013°33'0 0.0
2018-Aug-07 12:13N 45°31' E 013°33'0 0.0
2018-Aug-07 11:55N 45°31' E 013°33'0 0.0
2018-Aug-07 11:28N 45°31' E 013°33'0 0.0
2018-Aug-07 10:43N 45°31' E 013°33'0 0.0
2018-Aug-07 10:19N 45°31' E 013°33'0 0.0
2018-Aug-07 09:58N 45°31' E 013°33'0 0.0
2018-Aug-07 09:28N 45°31' E 013°33'0 0.0
2018-Aug-07 08:55N 45°31' E 013°33'0 0.0
2018-Aug-07 07:40N 45°31' E 013°33'0 0.1
2018-Aug-07 07:28N 45°31' E 013°33'1 1.3
2018-Aug-07 07:00N 45°31' E 013°33'4 7.8
2018-Aug-07 06:30N 45°30' E 013°27'510.8
2018-Aug-07 06:00N 45°27' E 013°21'510.4
2018-Aug-07 05:30N 45°25' E 013°15'2 3.9
2018-Aug-07 05:00N 45°24' E 013°12'1 1.7
2018-Aug-07 04:30N 45°24' E 013°11'0 0.8
2018-Aug-07 04:00N 45°25' E 013°11'0 0.7
2018-Aug-07 03:30N 45°25' E 013°11'0 0.6
2018-Aug-07 03:00N 45°25' E 013°10'0 0.7
2018-Aug-07 02:30N 45°25' E 013°10'0 0.7
2018-Aug-07 02:00N 45°25' E 013°09'0 0.7
2018-Aug-07 01:30N 45°25' E 013°09'0 0.7
2018-Aug-07 01:00N 45°24' E 013°09'0 0.6
2018-Aug-07 00:30N 45°24' E 013°08'1 1.0
2018-Aug-07 00:00N 45°24' E 013°08'1 2.8
2018-Aug-06 23:30N 45°23' E 013°07'4 7.2
2018-Aug-06 23:01N 45°19' E 013°09'4 7.1
2018-Aug-06 22:30N 45°16' E 013°11'4 7.3
2018-Aug-06 22:00N 45°13' E 013°14'1 2.8
2018-Aug-06 21:30N 45°12' E 013°15'0 0.3
2018-Aug-06 21:00N 45°11' E 013°15'0 0.6
2018-Aug-06 20:30N 45°11' E 013°15'1 2.6
2018-Aug-06 20:00N 45°10' E 013°16'611.1
2018-Aug-06 19:30N 45°08' E 013°23'611.0
2018-Aug-06 19:00N 45°06' E 013°30'3 5.3
2018-Aug-06 18:30N 45°05' E 013°34'1 2.9
2018-Aug-06 18:00N 45°05' E 013°36'1 2.1
2018-Aug-06 17:27N 45°05' E 013°38'0 0.8
2018-Aug-06 16:58N 45°05' E 013°38'0 0.0
2018-Aug-06 16:28N 45°05' E 013°38'0 0.0
2018-Aug-06 15:55N 45°05' E 013°38'0 0.0
2018-Aug-06 15:28N 45°05' E 013°38'0 0.0
2018-Aug-06 14:58N 45°05' E 013°38'0 0.0
2018-Aug-06 14:16N 45°05' E 013°38'0 0.0
2018-Aug-06 13:43N 45°05' E 013°38'0 0.0
2018-Aug-06 13:28N 45°05' E 013°38'0 0.0
2018-Aug-06 12:58N 45°05' E 013°38'0 0.0
2018-Aug-06 12:22N 45°05' E 013°38'0 0.0
2018-Aug-06 11:58N 45°05' E 013°38'0 0.0
2018-Aug-06 11:22N 45°05' E 013°38'0 0.0
2018-Aug-06 10:58N 45°05' E 013°38'0 0.0
2018-Aug-06 10:28N 45°05' E 013°38'0 0.0
2018-Aug-06 09:58N 45°05' E 013°38'2 4.0
2018-Aug-06 09:30N 45°04' E 013°36'510.4
2018-Aug-06 09:00N 44°59' E 013°37'4 8.6
2018-Aug-06 08:30N 44°55' E 013°39'2 3.7
2018-Aug-06 08:00N 44°54' E 013°40'2 3.8
2018-Aug-06 07:25N 44°52' E 013°43'2 4.1
2018-Aug-06 06:56N 44°51' E 013°45'5 9.2
2018-Aug-06 06:27N 44°47' E 013°47'510.0
2018-Aug-06 05:55N 44°42' E 013°48'6 8.7
2018-Aug-06 05:14N 44°37' E 013°54'2 8.9
2018-Aug-06 05:00N 44°36' E 013°56'5 9.5
2018-Aug-06 04:30N 44°33' E 014°01'4 8.5
2018-Aug-06 04:00N 44°30' E 014°05'4 8.4
2018-Aug-06 03:30N 44°27' E 014°10'  
2018-Jul-31 09:16N 38°04' E 015°31'4 8.5
2018-Jul-31 08:50N 38°08' E 015°33'412.5
2018-Jul-31 08:30N 38°12' E 015°35'712.7
2018-Jul-31 07:57N 38°18' E 015°40'4 9.8
2018-Jul-31 07:30N 38°21' E 015°36'610.3
2018-Jul-31 06:54N 38°26' E 015°31'410.3
2018-Jul-31 06:29N 38°29' E 015°28'  

Dump ship's entire track history